sensor_id;sensor_type;location;lat;lon;timestamp;temperature;humidity
1091;DHT22;534;48.704;9.122;2022-08-01T03:01:18;23.20;62.30
1091;DHT22;534;48.704;9.122;2022-08-01T03:03:46;23.20;62.30
1091;DHT22;534;48.704;9.122;2022-08-01T03:06:13;23.30;62.40
1091;DHT22;534;48.704;9.122;2022-08-01T03:08:41;23.10;62.70
1091;DHT22;534;48.704;9.122;2022-08-01T03:11:09;23.10;62.90
1091;DHT22;534;48.704;9.122;2022-08-01T03:13:37;23.10;63.00
1091;DHT22;534;48.704;9.122;2022-08-01T03:16:07;23.20;63.10
1091;DHT22;534;48.704;9.122;2022-08-01T03:18:35;23.20;63.00
1091;DHT22;534;48.704;9.122;2022-08-01T03:21:04;23.20;63.20
1091;DHT22;534;48.704;9.122;2022-08-01T03:23:32;23.10;63.40
1091;DHT22;534;48.704;9.122;2022-08-01T03:26:00;23.10;63.60
1091;DHT22;534;48.704;9.122;2022-08-01T03:28:28;23.20;63.50
1091;DHT22;534;48.704;9.122;2022-08-01T03:30:57;23.20;63.50
1091;DHT22;534;48.704;9.122;2022-08-01T03:33:25;23.10;63.80
1091;DHT22;534;48.704;9.122;2022-08-01T03:35:54;23.10;63.90
1091;DHT22;534;48.704;9.122;2022-08-01T03:38:23;23.20;63.90
1091;DHT22;534;48.704;9.122;2022-08-01T03:40:53;23.10;64.00
1091;DHT22;534;48.704;9.122;2022-08-01T03:43:31;23.10;64.20
1091;DHT22;534;48.704;9.122;2022-08-01T03:46:04;23.10;64.40
1091;DHT22;534;48.704;9.122;2022-08-01T03:48:36;23.10;64.50
1091;DHT22;534;48.704;9.122;2022-08-01T03:51:07;23.10;64.60
1091;DHT22;534;48.704;9.122;2022-08-01T03:53:35;22.90;64.90
1091;DHT22;534;48.704;9.122;2022-08-01T03:56:04;22.90;65.00
1091;DHT22;534;48.704;9.122;2022-08-01T03:58:34;22.90;65.30
1091;DHT22;534;48.704;9.122;2022-08-01T04:01:01;22.90;65.30
1091;DHT22;534;48.704;9.122;2022-08-01T04:03:28;22.90;65.60
1091;DHT22;534;48.704;9.122;2022-08-01T04:05:55;22.90;65.60
1091;DHT22;534;48.704;9.122;2022-08-01T04:08:23;22.90;65.70
1091;DHT22;534;48.704;9.122;2022-08-01T04:10:50;22.90;65.80
1091;DHT22;534;48.704;9.122;2022-08-01T04:13:16;22.90;65.80
1091;DHT22;534;48.704;9.122;2022-08-01T04:15:43;22.90;65.80
1091;DHT22;534;48.704;9.122;2022-08-01T04:18:10;22.90;65.90
1091;DHT22;534;48.704;9.122;2022-08-01T04:20:36;22.90;65.90
1091;DHT22;534;48.704;9.122;2022-08-01T04:23:03;22.90;65.90
1091;DHT22;534;48.704;9.122;2022-08-01T04:25:33;23.00;66.00
1091;DHT22;534;48.704;9.122;2022-08-01T04:28:01;23.00;66.10
1091;DHT22;534;48.704;9.122;2022-08-01T04:30:32;23.00;66.10
1091;DHT22;534;48.704;9.122;2022-08-01T04:33:01;23.10;65.90
1091;DHT22;534;48.704;9.122;2022-08-01T04:35:32;23.10;65.90
1091;DHT22;534;48.704;9.122;2022-08-01T04:38:01;23.20;65.90
1091;DHT22;534;48.704;9.122;2022-08-01T04:40:30;23.20;65.90
1091;DHT22;534;48.704;9.122;2022-08-01T04:42:58;23.30;65.70
1091;DHT22;534;48.704;9.122;2022-08-01T04:45:26;23.30;65.60
1091;DHT22;534;48.704;9.122;2022-08-01T04:47:53;23.40;65.50
1091;DHT22;534;48.704;9.122;2022-08-01T04:50:20;23.40;65.40
1091;DHT22;534;48.704;9.122;2022-08-01T04:52:48;23.40;65.50
1091;DHT22;534;48.704;9.122;2022-08-01T04:55:16;23.50;65.40
1091;DHT22;534;48.704;9.122;2022-08-01T04:57:46;23.60;65.40
1091;DHT22;534;48.704;9.122;2022-08-01T05:00:14;23.60;65.40
1091;DHT22;534;48.704;9.122;2022-08-01T05:02:42;23.70;65.30
1091;DHT22;534;48.704;9.122;2022-08-01T05:05:09;23.70;65.30
1091;DHT22;534;48.704;9.122;2022-08-01T05:07:36;23.80;65.20
1091;DHT22;534;48.704;9.122;2022-08-01T05:10:04;23.80;65.30
1091;DHT22;534;48.704;9.122;2022-08-01T05:12:31;23.80;65.40
1091;DHT22;534;48.704;9.122;2022-08-01T05:14:59;23.80;65.20
1091;DHT22;534;48.704;9.122;2022-08-01T05:17:27;23.90;65.10
1091;DHT22;534;48.704;9.122;2022-08-01T05:19:53;24.00;64.80
1091;DHT22;534;48.704;9.122;2022-08-01T05:22:20;24.10;64.80
1091;DHT22;534;48.704;9.122;2022-08-01T05:24:47;24.20;64.40
1091;DHT22;534;48.704;9.122;2022-08-01T05:27:14;24.30;64.40
1091;DHT22;534;48.704;9.122;2022-08-01T05:29:41;24.40;64.20
1091;DHT22;534;48.704;9.122;2022-08-01T05:32:09;24.40;64.10
1091;DHT22;534;48.704;9.122;2022-08-01T05:34:35;24.60;64.20
1091;DHT22;534;48.704;9.122;2022-08-01T05:37:02;24.60;63.90
1091;DHT22;534;48.704;9.122;2022-08-01T05:39:29;24.70;63.80
1091;DHT22;534;48.704;9.122;2022-08-01T05:42:19;24.80;63.80
1091;DHT22;534;48.704;9.122;2022-08-01T05:44:46;24.90;63.40
1091;DHT22;534;48.704;9.122;2022-08-01T05:47:14;25.00;63.60
1091;DHT22;534;48.704;9.122;2022-08-01T05:49:41;25.10;63.40
1091;DHT22;534;48.704;9.122;2022-08-01T05:52:07;25.20;63.40
1091;DHT22;534;48.704;9.122;2022-08-01T05:54:34;25.40;62.90
1091;DHT22;534;48.704;9.122;2022-08-01T05:57:01;25.60;62.30
1091;DHT22;534;48.704;9.122;2022-08-01T05:59:28;25.80;61.80
1091;DHT22;534;48.704;9.122;2022-08-01T06:01:55;25.90;61.50
1091;DHT22;534;48.704;9.122;2022-08-01T06:04:23;26.10;61.10
1091;DHT22;534;48.704;9.122;2022-08-01T06:06:49;26.20;60.50
1091;DHT22;534;48.704;9.122;2022-08-01T06:09:16;26.50;60.40
1091;DHT22;534;48.704;9.122;2022-08-01T06:11:43;26.70;60.00
1091;DHT22;534;48.704;9.122;2022-08-01T06:14:09;26.80;59.40
1091;DHT22;534;48.704;9.122;2022-08-01T06:16:36;26.90;59.30
1091;DHT22;534;48.704;9.122;2022-08-01T06:19:03;27.00;59.20
1091;DHT22;534;48.704;9.122;2022-08-01T06:21:31;27.10;59.20
1091;DHT22;534;48.704;9.122;2022-08-01T06:23:57;27.30;58.80
1091;DHT22;534;48.704;9.122;2022-08-01T06:26:24;27.10;59.20
1091;DHT22;534;48.704;9.122;2022-08-01T06:28:50;27.30;58.90
1091;DHT22;534;48.704;9.122;2022-08-01T06:31:17;27.30;58.80
1091;DHT22;534;48.704;9.122;2022-08-01T06:33:44;27.30;58.50
1091;DHT22;534;48.704;9.122;2022-08-01T06:36:10;27.10;60.10
1091;DHT22;534;48.704;9.122;2022-08-01T06:38:38;27.20;59.30
1091;DHT22;534;48.704;9.122;2022-08-01T06:41:05;27.50;59.00
1091;DHT22;534;48.704;9.122;2022-08-01T06:43:32;27.50;58.10
1091;DHT22;534;48.704;9.122;2022-08-01T06:45:59;27.40;58.30
1091;DHT22;534;48.704;9.122;2022-08-01T06:48:25;27.30;58.40
1091;DHT22;534;48.704;9.122;2022-08-01T06:50:52;27.40;58.60
1091;DHT22;534;48.704;9.122;2022-08-01T06:53:33;27.40;59.00
1091;DHT22;534;48.704;9.122;2022-08-01T06:56:01;27.40;59.30
1091;DHT22;534;48.704;9.122;2022-08-01T06:58:27;27.60;58.80
1091;DHT22;534;48.704;9.122;2022-08-01T07:00:54;27.70;57.80
1091;DHT22;534;48.704;9.122;2022-08-01T07:03:21;27.90;57.90
1091;DHT22;534;48.704;9.122;2022-08-01T07:05:47;28.10;58.10
1091;DHT22;534;48.704;9.122;2022-08-01T07:08:14;28.20;57.20
1091;DHT22;534;48.704;9.122;2022-08-01T07:10:41;28.30;56.80
1091;DHT22;534;48.704;9.122;2022-08-01T07:13:10;28.40;56.50
1091;DHT22;534;48.704;9.122;2022-08-01T07:15:37;28.00;56.50
1091;DHT22;534;48.704;9.122;2022-08-01T07:18:04;28.10;56.80
1091;DHT22;534;48.704;9.122;2022-08-01T07:20:31;28.20;56.40
1091;DHT22;534;48.704;9.122;2022-08-01T07:22:57;28.00;55.70
1091;DHT22;534;48.704;9.122;2022-08-01T07:25:24;27.90;55.90
1091;DHT22;534;48.704;9.122;2022-08-01T07:27:50;27.90;56.90
1091;DHT22;534;48.704;9.122;2022-08-01T07:30:18;28.10;56.00
1091;DHT22;534;48.704;9.122;2022-08-01T07:32:45;28.30;55.80
1091;DHT22;534;48.704;9.122;2022-08-01T07:35:12;28.10;55.60
1091;DHT22;534;48.704;9.122;2022-08-01T07:37:39;27.90;56.60
1091;DHT22;534;48.704;9.122;2022-08-01T07:40:06;28.20;56.90
1091;DHT22;534;48.704;9.122;2022-08-01T07:42:33;28.40;55.40
1091;DHT22;534;48.704;9.122;2022-08-01T07:45:00;28.70;54.80
1091;DHT22;534;48.704;9.122;2022-08-01T07:47:28;28.80;54.50
1091;DHT22;534;48.704;9.122;2022-08-01T07:49:59;29.10;54.40
1091;DHT22;534;48.704;9.122;2022-08-01T07:52:25;29.20;53.90
1091;DHT22;534;48.704;9.122;2022-08-01T07:54:52;29.30;53.80
1091;DHT22;534;48.704;9.122;2022-08-01T07:57:20;29.40;53.30
1091;DHT22;534;48.704;9.122;2022-08-01T07:59:46;29.50;53.70
1091;DHT22;534;48.704;9.122;2022-08-01T08:02:13;29.70;54.30
1091;DHT22;534;48.704;9.122;2022-08-01T08:04:41;29.30;53.10
1091;DHT22;534;48.704;9.122;2022-08-01T08:07:08;29.20;54.10
1091;DHT22;534;48.704;9.122;2022-08-01T08:09:35;29.00;54.10
1091;DHT22;534;48.704;9.122;2022-08-01T08:12:02;28.70;55.10
1091;DHT22;534;48.704;9.122;2022-08-01T08:14:28;28.70;55.30
1091;DHT22;534;48.704;9.122;2022-08-01T08:16:55;28.80;54.60
1091;DHT22;534;48.704;9.122;2022-08-01T08:19:22;28.70;54.60
1091;DHT22;534;48.704;9.122;2022-08-01T08:21:50;28.80;54.90
1091;DHT22;534;48.704;9.122;2022-08-01T08:24:16;29.00;54.90
1091;DHT22;534;48.704;9.122;2022-08-01T08:26:47;29.20;53.60
1091;DHT22;534;48.704;9.122;2022-08-01T08:29:13;29.30;54.80
1091;DHT22;534;48.704;9.122;2022-08-01T08:31:40;29.00;54.60
1091;DHT22;534;48.704;9.122;2022-08-01T08:34:07;28.90;54.30
1091;DHT22;534;48.704;9.122;2022-08-01T08:36:34;28.80;54.60
1091;DHT22;534;48.704;9.122;2022-08-01T08:39:02;28.80;54.50
1091;DHT22;534;48.704;9.122;2022-08-01T08:41:29;28.70;55.70
1091;DHT22;534;48.704;9.122;2022-08-01T08:43:56;28.60;55.20
1091;DHT22;534;48.704;9.122;2022-08-01T08:46:25;28.50;56.30
1091;DHT22;534;48.704;9.122;2022-08-01T08:48:53;28.70;56.30
1091;DHT22;534;48.704;9.122;2022-08-01T08:51:21;28.80;55.10
1091;DHT22;534;48.704;9.122;2022-08-01T08:53:51;28.80;54.60
1091;DHT22;534;48.704;9.122;2022-08-01T08:56:21;28.70;54.40
1091;DHT22;534;48.704;9.122;2022-08-01T08:58:50;28.60;55.00
1091;DHT22;534;48.704;9.122;2022-08-01T09:01:17;28.80;55.00
1091;DHT22;534;48.704;9.122;2022-08-01T09:03:44;29.20;54.40
1091;DHT22;534;48.704;9.122;2022-08-01T09:06:11;29.00;54.50
1091;DHT22;534;48.704;9.122;2022-08-01T09:08:38;28.90;55.80
1091;DHT22;534;48.704;9.122;2022-08-01T09:11:06;29.00;55.30
1091;DHT22;534;48.704;9.122;2022-08-01T09:13:34;29.00;54.80
1091;DHT22;534;48.704;9.122;2022-08-01T09:16:01;29.10;54.30
1091;DHT22;534;48.704;9.122;2022-08-01T09:18:30;28.60;54.90
1091;DHT22;534;48.704;9.122;2022-08-01T09:21:14;28.40;55.60
1091;DHT22;534;48.704;9.122;2022-08-01T09:23:43;28.40;55.50
1091;DHT22;534;48.704;9.122;2022-08-01T09:26:12;28.30;56.00
1091;DHT22;534;48.704;9.122;2022-08-01T09:28:40;27.90;56.40
1091;DHT22;534;48.704;9.122;2022-08-01T09:31:09;28.00;57.00
1091;DHT22;534;48.704;9.122;2022-08-01T09:33:50;28.10;57.30
1091;DHT22;534;48.704;9.122;2022-08-01T09:36:17;28.30;56.50
1091;DHT22;534;48.704;9.122;2022-08-01T09:38:44;28.40;56.30
1091;DHT22;534;48.704;9.122;2022-08-01T09:41:11;28.50;55.70
1091;DHT22;534;48.704;9.122;2022-08-01T09:43:37;28.40;55.50
1091;DHT22;534;48.704;9.122;2022-08-01T09:46:09;28.40;56.40
1091;DHT22;534;48.704;9.122;2022-08-01T09:48:37;28.80;55.00
1091;DHT22;534;48.704;9.122;2022-08-01T09:51:05;29.10;53.90
1091;DHT22;534;48.704;9.122;2022-08-01T09:53:45;29.20;54.80
1091;DHT22;534;48.704;9.122;2022-08-01T09:56:12;29.20;53.60
1091;DHT22;534;48.704;9.122;2022-08-01T09:58:53;29.30;53.80
1091;DHT22;534;48.704;9.122;2022-08-01T10:01:22;29.30;53.10
1091;DHT22;534;48.704;9.122;2022-08-01T10:04:11;29.10;53.70
1091;DHT22;534;48.704;9.122;2022-08-01T10:06:39;29.10;54.10
1091;DHT22;534;48.704;9.122;2022-08-01T10:09:05;29.00;53.60
1091;DHT22;534;48.704;9.122;2022-08-01T10:11:33;29.00;54.00
1091;DHT22;534;48.704;9.122;2022-08-01T10:14:02;29.10;53.90
1091;DHT22;534;48.704;9.122;2022-08-01T10:16:32;29.30;54.40
1091;DHT22;534;48.704;9.122;2022-08-01T10:19:01;29.60;55.00
1091;DHT22;534;48.704;9.122;2022-08-01T10:21:28;29.80;54.10
1091;DHT22;534;48.704;9.122;2022-08-01T10:23:57;29.80;54.20
1091;DHT22;534;48.704;9.122;2022-08-01T10:26:25;29.70;54.60
1091;DHT22;534;48.704;9.122;2022-08-01T10:28:53;29.70;54.40
1091;DHT22;534;48.704;9.122;2022-08-01T10:31:20;29.50;54.40
1091;DHT22;534;48.704;9.122;2022-08-01T10:33:50;29.40;54.70
1091;DHT22;534;48.704;9.122;2022-08-01T10:36:18;29.30;54.60
1091;DHT22;534;48.704;9.122;2022-08-01T10:38:46;29.20;55.50
1091;DHT22;534;48.704;9.122;2022-08-01T10:41:13;29.30;55.50
1091;DHT22;534;48.704;9.122;2022-08-01T10:43:41;29.50;55.30
1091;DHT22;534;48.704;9.122;2022-08-01T10:46:08;29.60;55.90
1091;DHT22;534;48.704;9.122;2022-08-01T10:48:41;29.80;55.20
1091;DHT22;534;48.704;9.122;2022-08-01T10:51:11;30.20;53.70
1091;DHT22;534;48.704;9.122;2022-08-01T10:53:46;30.40;53.20
1091;DHT22;534;48.704;9.122;2022-08-01T10:56:13;30.40;54.20
1091;DHT22;534;48.704;9.122;2022-08-01T10:58:43;30.50;52.30
1091;DHT22;534;48.704;9.122;2022-08-01T11:01:23;30.50;52.70
1091;DHT22;534;48.704;9.122;2022-08-01T11:04:00;30.20;53.30
1091;DHT22;534;48.704;9.122;2022-08-01T11:06:41;30.20;53.50
1091;DHT22;534;48.704;9.122;2022-08-01T11:09:24;30.00;53.50
1091;DHT22;534;48.704;9.122;2022-08-01T11:11:59;29.80;53.90
1091;DHT22;534;48.704;9.122;2022-08-01T11:14:27;29.80;54.10
1091;DHT22;534;48.704;9.122;2022-08-01T11:16:55;29.80;53.80
1091;DHT22;534;48.704;9.122;2022-08-01T11:19:22;29.80;54.70
1091;DHT22;534;48.704;9.122;2022-08-01T11:21:59;29.60;54.40
1091;DHT22;534;48.704;9.122;2022-08-01T11:24:54;29.40;54.40
1091;DHT22;534;48.704;9.122;2022-08-01T11:27:23;29.30;54.90
1091;DHT22;534;48.704;9.122;2022-08-01T11:32:48;29.00;55.60
1091;DHT22;534;48.704;9.122;2022-08-01T11:35:15;29.00;55.60
1091;DHT22;534;48.704;9.122;2022-08-01T11:37:43;29.00;55.70
1091;DHT22;534;48.704;9.122;2022-08-01T11:40:18;29.00;56.30
1091;DHT22;534;48.704;9.122;2022-08-01T11:42:45;29.10;55.90
1091;DHT22;534;48.704;9.122;2022-08-01T11:45:12;29.00;55.40
1091;DHT22;534;48.704;9.122;2022-08-01T11:47:44;29.00;55.60
1091;DHT22;534;48.704;9.122;2022-08-01T11:50:35;29.00;55.00
1091;DHT22;534;48.704;9.122;2022-08-01T11:53:04;29.00;55.60
1091;DHT22;534;48.704;9.122;2022-08-01T11:55:32;29.00;54.90
1091;DHT22;534;48.704;9.122;2022-08-01T11:58:01;28.90;55.10
1091;DHT22;534;48.704;9.122;2022-08-01T12:00:28;29.00;55.20
1091;DHT22;534;48.704;9.122;2022-08-01T12:03:00;29.10;54.90
1091;DHT22;534;48.704;9.122;2022-08-01T12:05:27;29.00;54.40
1091;DHT22;534;48.704;9.122;2022-08-01T12:07:56;29.00;54.70
1091;DHT22;534;48.704;9.122;2022-08-01T12:10:25;29.10;54.80
1091;DHT22;534;48.704;9.122;2022-08-01T12:12:55;29.20;55.00
1091;DHT22;534;48.704;9.122;2022-08-01T12:15:24;29.20;55.00
1091;DHT22;534;48.704;9.122;2022-08-01T12:17:55;29.10;55.10
1091;DHT22;534;48.704;9.122;2022-08-01T12:20:23;29.00;54.70
1091;DHT22;534;48.704;9.122;2022-08-01T12:22:53;29.10;55.20
1091;DHT22;534;48.704;9.122;2022-08-01T12:25:19;29.00;54.30
1091;DHT22;534;48.704;9.122;2022-08-01T12:27:48;29.00;55.40
1091;DHT22;534;48.704;9.122;2022-08-01T12:30:16;29.10;54.90
1091;DHT22;534;48.704;9.122;2022-08-01T12:32:45;29.00;54.10
1091;DHT22;534;48.704;9.122;2022-08-01T12:35:13;28.80;55.30
1091;DHT22;534;48.704;9.122;2022-08-01T12:37:42;28.80;54.00
1091;DHT22;534;48.704;9.122;2022-08-01T12:40:12;29.00;54.60
1091;DHT22;534;48.704;9.122;2022-08-01T12:42:40;29.10;53.20
1091;DHT22;534;48.704;9.122;2022-08-01T12:45:10;29.30;53.90
1091;DHT22;534;48.704;9.122;2022-08-01T12:47:38;29.50;53.80
1091;DHT22;534;48.704;9.122;2022-08-01T12:50:06;29.30;54.10
1091;DHT22;534;48.704;9.122;2022-08-01T12:52:34;29.20;54.10
1091;DHT22;534;48.704;9.122;2022-08-01T12:55:11;29.00;54.50
1091;DHT22;534;48.704;9.122;2022-08-01T12:57:39;29.20;54.70
1091;DHT22;534;48.704;9.122;2022-08-01T13:00:14;29.40;53.60
1091;DHT22;534;48.704;9.122;2022-08-01T13:02:43;29.70;54.10
1091;DHT22;534;48.704;9.122;2022-08-01T13:05:11;29.70;53.60
1091;DHT22;534;48.704;9.122;2022-08-01T13:07:41;29.90;53.40
1091;DHT22;534;48.704;9.122;2022-08-01T13:10:09;30.20;53.40
1091;DHT22;534;48.704;9.122;2022-08-01T13:12:36;30.60;53.00
1091;DHT22;534;48.704;9.122;2022-08-01T13:15:22;30.70;51.70
1091;DHT22;534;48.704;9.122;2022-08-01T13:17:49;30.50;50.40
1091;DHT22;534;48.704;9.122;2022-08-01T13:20:30;30.30;51.80
1091;DHT22;534;48.704;9.122;2022-08-01T13:23:13;30.30;51.00
1091;DHT22;534;48.704;9.122;2022-08-01T13:25:48;30.50;51.20
1091;DHT22;534;48.704;9.122;2022-08-01T13:28:16;30.40;51.90
1091;DHT22;534;48.704;9.122;2022-08-01T13:30:52;30.40;52.10
1091;DHT22;534;48.704;9.122;2022-08-01T13:33:19;30.40;51.80
1091;DHT22;534;48.704;9.122;2022-08-01T13:35:46;30.50;52.60
1091;DHT22;534;48.704;9.122;2022-08-01T13:38:13;30.60;51.30
1091;DHT22;534;48.704;9.122;2022-08-01T13:40:40;30.80;51.70
1091;DHT22;534;48.704;9.122;2022-08-01T13:43:07;31.00;50.50
1091;DHT22;534;48.704;9.122;2022-08-01T13:45:34;31.40;50.40
1091;DHT22;534;48.704;9.122;2022-08-01T13:48:02;31.60;50.30
1091;DHT22;534;48.704;9.122;2022-08-01T13:50:29;31.60;50.20
1091;DHT22;534;48.704;9.122;2022-08-01T13:52:56;31.40;49.70
1091;DHT22;534;48.704;9.122;2022-08-01T13:55:22;31.30;50.10
1091;DHT22;534;48.704;9.122;2022-08-01T13:57:49;31.30;50.50
1091;DHT22;534;48.704;9.122;2022-08-01T14:00:16;31.20;50.70
1091;DHT22;534;48.704;9.122;2022-08-01T14:02:43;31.20;51.40
1091;DHT22;534;48.704;9.122;2022-08-01T14:05:10;31.30;50.70
1091;DHT22;534;48.704;9.122;2022-08-01T14:07:38;31.40;50.20
1091;DHT22;534;48.704;9.122;2022-08-01T14:10:05;31.30;49.70
1091;DHT22;534;48.704;9.122;2022-08-01T14:12:31;31.20;49.70
1091;DHT22;534;48.704;9.122;2022-08-01T14:14:58;31.10;49.80
1091;DHT22;534;48.704;9.122;2022-08-01T14:17:25;31.00;50.00
1091;DHT22;534;48.704;9.122;2022-08-01T14:19:52;31.10;50.00
1091;DHT22;534;48.704;9.122;2022-08-01T14:22:20;31.30;49.40
1091;DHT22;534;48.704;9.122;2022-08-01T14:24:46;31.30;49.70
1091;DHT22;534;48.704;9.122;2022-08-01T14:27:14;31.40;50.10
1091;DHT22;534;48.704;9.122;2022-08-01T14:29:41;31.60;50.10
1091;DHT22;534;48.704;9.122;2022-08-01T14:32:07;31.90;49.80
1091;DHT22;534;48.704;9.122;2022-08-01T14:34:34;32.10;48.90
1091;DHT22;534;48.704;9.122;2022-08-01T14:37:01;32.40;49.00
1091;DHT22;534;48.704;9.122;2022-08-01T14:39:29;32.40;47.90
1091;DHT22;534;48.704;9.122;2022-08-01T14:41:55;32.50;47.90
1091;DHT22;534;48.704;9.122;2022-08-01T14:44:22;32.40;48.80
1091;DHT22;534;48.704;9.122;2022-08-01T14:46:49;32.50;48.20
1091;DHT22;534;48.704;9.122;2022-08-01T14:49:15;32.60;47.60
1091;DHT22;534;48.704;9.122;2022-08-01T14:51:42;32.90;47.90
1091;DHT22;534;48.704;9.122;2022-08-01T14:54:09;33.10;47.90
1091;DHT22;534;48.704;9.122;2022-08-01T14:56:37;33.30;47.30
1091;DHT22;534;48.704;9.122;2022-08-01T14:59:03;33.40;46.70
1091;DHT22;534;48.704;9.122;2022-08-01T15:01:30;33.40;46.10
1091;DHT22;534;48.704;9.122;2022-08-01T15:03:57;33.40;45.70
1091;DHT22;534;48.704;9.122;2022-08-01T15:06:23;33.40;45.50
1091;DHT22;534;48.704;9.122;2022-08-01T15:08:50;33.30;46.00
1091;DHT22;534;48.704;9.122;2022-08-01T15:11:17;33.20;45.80
1091;DHT22;534;48.704;9.122;2022-08-01T15:13:45;33.20;46.20
1091;DHT22;534;48.704;9.122;2022-08-01T15:16:31;33.10;46.00
1091;DHT22;534;48.704;9.122;2022-08-01T15:18:58;32.80;46.20
1091;DHT22;534;48.704;9.122;2022-08-01T15:21:25;32.60;46.70
1091;DHT22;534;48.704;9.122;2022-08-01T15:23:51;32.30;46.90
1091;DHT22;534;48.704;9.122;2022-08-01T15:26:18;32.10;48.00
1091;DHT22;534;48.704;9.122;2022-08-01T15:28:46;32.00;47.30
1091;DHT22;534;48.704;9.122;2022-08-01T15:31:13;32.00;47.80
1091;DHT22;534;48.704;9.122;2022-08-01T15:33:39;32.00;48.10
1091;DHT22;534;48.704;9.122;2022-08-01T15:36:06;31.90;48.60
1091;DHT22;534;48.704;9.122;2022-08-01T15:38:33;31.90;47.60
1091;DHT22;534;48.704;9.122;2022-08-01T15:41:00;31.90;47.80
1091;DHT22;534;48.704;9.122;2022-08-01T15:43:27;31.90;47.70
1091;DHT22;534;48.704;9.122;2022-08-01T15:45:55;31.80;47.80
1091;DHT22;534;48.704;9.122;2022-08-01T15:48:22;31.70;47.60
1091;DHT22;534;48.704;9.122;2022-08-01T15:50:49;31.60;47.90
1091;DHT22;534;48.704;9.122;2022-08-01T15:53:16;31.50;48.30
1091;DHT22;534;48.704;9.122;2022-08-01T15:55:42;31.40;47.90
1091;DHT22;534;48.704;9.122;2022-08-01T15:58:09;31.20;48.30
1091;DHT22;534;48.704;9.122;2022-08-01T16:00:37;31.10;48.90
1091;DHT22;534;48.704;9.122;2022-08-01T16:03:06;31.00;48.80
1091;DHT22;534;48.704;9.122;2022-08-01T16:05:34;31.00;48.50
1091;DHT22;534;48.704;9.122;2022-08-01T16:08:01;30.90;48.70
1091;DHT22;534;48.704;9.122;2022-08-01T16:10:29;30.80;49.50
1091;DHT22;534;48.704;9.122;2022-08-01T16:12:56;30.70;49.00
1091;DHT22;534;48.704;9.122;2022-08-01T16:15:23;30.50;49.40
1091;DHT22;534;48.704;9.122;2022-08-01T16:17:50;30.50;49.80
1091;DHT22;534;48.704;9.122;2022-08-01T16:20:18;30.30;49.80
1091;DHT22;534;48.704;9.122;2022-08-01T16:22:44;30.20;50.30
1091;DHT22;534;48.704;9.122;2022-08-01T16:25:11;30.20;50.30
1091;DHT22;534;48.704;9.122;2022-08-01T16:27:39;30.30;50.70
1091;DHT22;534;48.704;9.122;2022-08-01T16:30:06;30.10;50.00
1091;DHT22;534;48.704;9.122;2022-08-01T16:32:33;30.00;50.70
1091;DHT22;534;48.704;9.122;2022-08-01T16:35:00;29.80;50.70
1091;DHT22;534;48.704;9.122;2022-08-01T16:37:28;29.80;50.70
1091;DHT22;534;48.704;9.122;2022-08-01T16:39:55;29.80;50.70
1091;DHT22;534;48.704;9.122;2022-08-01T16:42:21;29.80;50.80
1091;DHT22;534;48.704;9.122;2022-08-01T16:44:48;29.70;51.00
1091;DHT22;534;48.704;9.122;2022-08-01T16:47:15;29.60;51.60
1091;DHT22;534;48.704;9.122;2022-08-01T16:49:41;29.40;51.70
1091;DHT22;534;48.704;9.122;2022-08-01T16:52:08;29.30;51.80
1091;DHT22;534;48.704;9.122;2022-08-01T16:54:37;29.20;52.10
1091;DHT22;534;48.704;9.122;2022-08-01T16:57:04;29.10;52.00
1091;DHT22;534;48.704;9.122;2022-08-01T16:59:31;29.10;52.30
1091;DHT22;534;48.704;9.122;2022-08-01T17:01:57;29.20;52.20
1091;DHT22;534;48.704;9.122;2022-08-01T17:04:24;29.20;52.10
1091;DHT22;534;48.704;9.122;2022-08-01T17:06:51;29.00;52.20
1091;DHT22;534;48.704;9.122;2022-08-01T17:09:18;29.10;52.30
1091;DHT22;534;48.704;9.122;2022-08-01T17:11:46;29.20;52.50
1091;DHT22;534;48.704;9.122;2022-08-01T17:14:13;29.10;52.80
1091;DHT22;534;48.704;9.122;2022-08-01T17:16:40;29.00;52.20
1091;DHT22;534;48.704;9.122;2022-08-01T17:19:07;29.00;52.40
1091;DHT22;534;48.704;9.122;2022-08-01T17:21:33;29.00;52.40
1091;DHT22;534;48.704;9.122;2022-08-01T17:24:00;28.90;52.80
1091;DHT22;534;48.704;9.122;2022-08-01T17:26:27;28.90;52.70
1091;DHT22;534;48.704;9.122;2022-08-01T17:28:55;29.00;52.70
1091;DHT22;534;48.704;9.122;2022-08-01T17:31:21;29.00;52.80
1091;DHT22;534;48.704;9.122;2022-08-01T17:33:48;29.00;53.00
1091;DHT22;534;48.704;9.122;2022-08-01T17:36:15;29.10;52.80
1091;DHT22;534;48.704;9.122;2022-08-01T17:38:45;29.00;52.40
1091;DHT22;534;48.704;9.122;2022-08-01T17:41:12;29.10;52.90
1091;DHT22;534;48.704;9.122;2022-08-01T17:43:38;29.10;52.90
1091;DHT22;534;48.704;9.122;2022-08-01T17:46:06;29.00;53.00
1091;DHT22;534;48.704;9.122;2022-08-01T17:48:33;29.00;53.00
1091;DHT22;534;48.704;9.122;2022-08-01T17:51:00;28.90;53.40
1091;DHT22;534;48.704;9.122;2022-08-01T17:53:27;28.80;53.70
1091;DHT22;534;48.704;9.122;2022-08-01T17:55:54;28.80;53.70
1091;DHT22;534;48.704;9.122;2022-08-01T17:58:23;28.80;53.80
1091;DHT22;534;48.704;9.122;2022-08-01T18:00:50;28.70;54.20
1091;DHT22;534;48.704;9.122;2022-08-01T18:03:18;28.60;54.30
1091;DHT22;534;48.704;9.122;2022-08-01T18:05:44;28.60;54.00
1091;DHT22;534;48.704;9.122;2022-08-01T18:08:11;28.50;54.30
1091;DHT22;534;48.704;9.122;2022-08-01T18:10:38;28.50;54.50
1091;DHT22;534;48.704;9.122;2022-08-01T18:13:05;28.60;54.40
1091;DHT22;534;48.704;9.122;2022-08-01T18:15:32;28.60;54.30
1091;DHT22;534;48.704;9.122;2022-08-01T18:17:58;28.30;54.80
1091;DHT22;534;48.704;9.122;2022-08-01T18:20:27;28.30;54.70
1091;DHT22;534;48.704;9.122;2022-08-01T18:22:54;28.30;54.80
1091;DHT22;534;48.704;9.122;2022-08-01T18:25:20;28.30;55.20
1091;DHT22;534;48.704;9.122;2022-08-01T18:27:47;28.30;54.90
1091;DHT22;534;48.704;9.122;2022-08-01T18:30:14;28.30;55.20
1091;DHT22;534;48.704;9.122;2022-08-01T18:32:41;28.20;55.10
1091;DHT22;534;48.704;9.122;2022-08-01T18:35:08;28.20;55.20
1091;DHT22;534;48.704;9.122;2022-08-01T18:37:36;28.10;55.60
1091;DHT22;534;48.704;9.122;2022-08-01T18:40:04;28.00;55.60
1091;DHT22;534;48.704;9.122;2022-08-01T18:42:31;28.10;55.60
1091;DHT22;534;48.704;9.122;2022-08-01T18:44:57;28.10;56.20
1091;DHT22;534;48.704;9.122;2022-08-01T18:47:24;27.90;56.10
1091;DHT22;534;48.704;9.122;2022-08-01T18:49:51;27.90;56.10
1091;DHT22;534;48.704;9.122;2022-08-01T18:52:17;27.90;56.00
1091;DHT22;534;48.704;9.122;2022-08-01T18:54:45;28.00;56.20
1091;DHT22;534;48.704;9.122;2022-08-01T18:57:12;28.00;56.30
1091;DHT22;534;48.704;9.122;2022-08-01T18:59:39;28.10;56.10
1091;DHT22;534;48.704;9.122;2022-08-01T19:02:05;28.10;56.30
1091;DHT22;534;48.704;9.122;2022-08-01T19:04:32;28.10;56.50
1091;DHT22;534;48.704;9.122;2022-08-01T19:06:59;28.10;57.00
1091;DHT22;534;48.704;9.122;2022-08-01T19:09:25;28.10;57.30
1091;DHT22;534;48.704;9.122;2022-08-01T19:11:53;28.00;58.60
1091;DHT22;534;48.704;9.122;2022-08-01T19:14:20;27.90;59.30
1091;DHT22;534;48.704;9.122;2022-08-01T19:16:47;27.90;60.70
1091;DHT22;534;48.704;9.122;2022-08-01T19:19:13;27.90;61.00
1091;DHT22;534;48.704;9.122;2022-08-01T19:21:40;27.80;62.20
1091;DHT22;534;48.704;9.122;2022-08-01T19:24:07;27.70;61.30
1091;DHT22;534;48.704;9.122;2022-08-01T19:26:46;27.60;62.90